sensor_id;sensor_type;location;lat;lon;timestamp;temperature;humidity
24144;DHT22;12307;50.828;6.080;2023-02-17T00:02:23;20.70;52.10
24144;DHT22;12307;50.828;6.080;2023-02-17T00:04:49;20.70;52.10
24144;DHT22;12307;50.828;6.080;2023-02-17T00:07:16;20.70;52.10
24144;DHT22;12307;50.828;6.080;2023-02-17T00:09:43;20.70;52.10
24144;DHT22;12307;50.828;6.080;2023-02-17T00:12:10;20.70;52.10
24144;DHT22;12307;50.828;6.080;2023-02-17T00:14:37;20.70;52.20
24144;DHT22;12307;50.828;6.080;2023-02-17T00:17:03;20.70;52.20
24144;DHT22;12307;50.828;6.080;2023-02-17T00:19:29;20.70;52.20
24144;DHT22;12307;50.828;6.080;2023-02-17T00:21:56;20.70;52.20
24144;DHT22;12307;50.828;6.080;2023-02-17T00:24:22;20.70;52.20
24144;DHT22;12307;50.828;6.080;2023-02-17T00:26:49;20.70;52.20
24144;DHT22;12307;50.828;6.080;2023-02-17T00:29:15;20.70;52.30
24144;DHT22;12307;50.828;6.080;2023-02-17T00:31:42;20.70;52.20
24144;DHT22;12307;50.828;6.080;2023-02-17T00:34:08;20.70;52.20
24144;DHT22;12307;50.828;6.080;2023-02-17T00:36:33;20.70;52.20
24144;DHT22;12307;50.828;6.080;2023-02-17T00:38:59;20.70;52.20
24144;DHT22;12307;50.828;6.080;2023-02-17T00:41:26;20.70;52.20
24144;DHT22;12307;50.828;6.080;2023-02-17T00:43:53;20.70;52.20
24144;DHT22;12307;50.828;6.080;2023-02-17T00:46:20;20.70;52.20
24144;DHT22;12307;50.828;6.080;2023-02-17T00:48:46;20.70;52.30
24144;DHT22;12307;50.828;6.080;2023-02-17T00:51:13;20.70;52.20
24144;DHT22;12307;50.828;6.080;2023-02-17T00:53:38;20.70;52.30
24144;DHT22;12307;50.828;6.080;2023-02-17T00:56:05;20.70;52.20
24144;DHT22;12307;50.828;6.080;2023-02-17T00:58:31;20.70;52.30
24144;DHT22;12307;50.828;6.080;2023-02-17T01:00:58;20.70;52.30
24144;DHT22;12307;50.828;6.080;2023-02-17T01:03:24;20.70;52.30
24144;DHT22;12307;50.828;6.080;2023-02-17T01:05:50;20.70;52.30
24144;DHT22;12307;50.828;6.080;2023-02-17T01:08:17;20.70;52.30
24144;DHT22;12307;50.828;6.080;2023-02-17T01:10:44;20.70;52.30
24144;DHT22;12307;50.828;6.080;2023-02-17T01:13:11;20.70;52.30
24144;DHT22;12307;50.828;6.080;2023-02-17T01:15:38;20.70;52.30
24144;DHT22;12307;50.828;6.080;2023-02-17T01:18:06;20.70;52.30
24144;DHT22;12307;50.828;6.080;2023-02-17T01:20:33;20.70;52.30
24144;DHT22;12307;50.828;6.080;2023-02-17T01:22:59;20.70;52.30
24144;DHT22;12307;50.828;6.080;2023-02-17T01:25:25;20.70;52.30
24144;DHT22;12307;50.828;6.080;2023-02-17T01:27:51;20.70;52.30
24144;DHT22;12307;50.828;6.080;2023-02-17T01:30:17;20.70;52.30
24144;DHT22;12307;50.828;6.080;2023-02-17T01:32:42;20.70;52.30
24144;DHT22;12307;50.828;6.080;2023-02-17T01:35:10;20.70;52.30
24144;DHT22;12307;50.828;6.080;2023-02-17T01:37:35;20.70;52.30
24144;DHT22;12307;50.828;6.080;2023-02-17T01:40:01;20.70;52.30
24144;DHT22;12307;50.828;6.080;2023-02-17T01:42:27;20.70;52.70
24144;DHT22;12307;50.828;6.080;2023-02-17T01:45:29;20.70;52.40
24144;DHT22;12307;50.828;6.080;2023-02-17T01:47:58;20.70;52.40
24144;DHT22;12307;50.828;6.080;2023-02-17T01:50:30;20.70;52.40
24144;DHT22;12307;50.828;6.080;2023-02-17T01:52:57;20.70;52.40
24144;DHT22;12307;50.828;6.080;2023-02-17T01:55:25;20.70;52.40
24144;DHT22;12307;50.828;6.080;2023-02-17T01:57:53;20.70;52.40
24144;DHT22;12307;50.828;6.080;2023-02-17T02:00:22;20.70;52.40
24144;DHT22;12307;50.828;6.080;2023-02-17T02:02:49;20.70;52.40
24144;DHT22;12307;50.828;6.080;2023-02-17T02:05:16;20.70;52.40
24144;DHT22;12307;50.828;6.080;2023-02-17T02:07:46;20.70;52.40
24144;DHT22;12307;50.828;6.080;2023-02-17T02:10:13;20.70;52.40
24144;DHT22;12307;50.828;6.080;2023-02-17T02:12:41;20.70;52.40
24144;DHT22;12307;50.828;6.080;2023-02-17T02:15:08;20.70;52.40
24144;DHT22;12307;50.828;6.080;2023-02-17T02:17:40;20.70;52.40
24144;DHT22;12307;50.828;6.080;2023-02-17T02:20:26;20.70;52.40
24144;DHT22;12307;50.828;6.080;2023-02-17T02:23:18;20.70;52.40
24144;DHT22;12307;50.828;6.080;2023-02-17T02:26:15;20.70;52.40
24144;DHT22;12307;50.828;6.080;2023-02-17T02:28:54;20.70;52.40
24144;DHT22;12307;50.828;6.080;2023-02-17T02:31:36;20.70;52.40
24144;DHT22;12307;50.828;6.080;2023-02-17T02:34:08;20.70;52.50
24144;DHT22;12307;50.828;6.080;2023-02-17T02:36:43;20.70;52.50
24144;DHT22;12307;50.828;6.080;2023-02-17T02:39:14;20.70;52.50
24144;DHT22;12307;50.828;6.080;2023-02-17T02:41:44;20.70;52.50
24144;DHT22;12307;50.828;6.080;2023-02-17T02:44:13;20.70;52.50
24144;DHT22;12307;50.828;6.080;2023-02-17T02:46:39;20.70;52.50
24144;DHT22;12307;50.828;6.080;2023-02-17T02:49:07;20.70;52.50
24144;DHT22;12307;50.828;6.080;2023-02-17T02:51:42;20.70;52.50
24144;DHT22;12307;50.828;6.080;2023-02-17T02:54:22;20.70;52.50
24144;DHT22;12307;50.828;6.080;2023-02-17T02:57:03;20.70;52.50
24144;DHT22;12307;50.828;6.080;2023-02-17T02:59:42;20.70;52.50
24144;DHT22;12307;50.828;6.080;2023-02-17T03:02:16;20.70;52.50
24144;DHT22;12307;50.828;6.080;2023-02-17T03:04:50;20.70;52.50
24144;DHT22;12307;50.828;6.080;2023-02-17T03:07:21;20.70;52.50
24144;DHT22;12307;50.828;6.080;2023-02-17T03:09:52;20.70;52.50
24144;DHT22;12307;50.828;6.080;2023-02-17T03:12:19;20.70;52.50
24144;DHT22;12307;50.828;6.080;2023-02-17T03:14:47;20.70;52.50
24144;DHT22;12307;50.828;6.080;2023-02-17T03:17:14;20.70;52.50
24144;DHT22;12307;50.828;6.080;2023-02-17T03:19:40;20.70;52.50
24144;DHT22;12307;50.828;6.080;2023-02-17T03:22:13;20.70;52.50
24144;DHT22;12307;50.828;6.080;2023-02-17T03:24:41;20.70;52.50
24144;DHT22;12307;50.828;6.080;2023-02-17T03:27:07;20.70;52.50
24144;DHT22;12307;50.828;6.080;2023-02-17T03:29:32;20.70;52.50
24144;DHT22;12307;50.828;6.080;2023-02-17T03:31:58;20.70;52.50
24144;DHT22;12307;50.828;6.080;2023-02-17T03:34:24;20.70;52.50
24144;DHT22;12307;50.828;6.080;2023-02-17T03:36:50;20.70;52.60
24144;DHT22;12307;50.828;6.080;2023-02-17T03:39:17;20.70;52.50
24144;DHT22;12307;50.828;6.080;2023-02-17T03:41:43;20.70;52.60
24144;DHT22;12307;50.828;6.080;2023-02-17T03:44:09;20.70;52.60
24144;DHT22;12307;50.828;6.080;2023-02-17T03:46:37;20.70;52.60
24144;DHT22;12307;50.828;6.080;2023-02-17T03:49:02;20.70;52.60
24144;DHT22;12307;50.828;6.080;2023-02-17T03:51:28;20.70;52.60
24144;DHT22;12307;50.828;6.080;2023-02-17T03:53:54;20.70;52.60
24144;DHT22;12307;50.828;6.080;2023-02-17T03:56:21;20.70;52.60
24144;DHT22;12307;50.828;6.080;2023-02-17T03:58:47;20.70;52.60
24144;DHT22;12307;50.828;6.080;2023-02-17T04:01:13;20.70;52.60
24144;DHT22;12307;50.828;6.080;2023-02-17T04:03:39;20.70;52.60
24144;DHT22;12307;50.828;6.080;2023-02-17T04:06:06;20.70;52.60
24144;DHT22;12307;50.828;6.080;2023-02-17T04:08:32;20.70;52.60
24144;DHT22;12307;50.828;6.080;2023-02-17T04:11:00;20.70;52.60
24144;DHT22;12307;50.828;6.080;2023-02-17T04:13:28;20.70;52.60
24144;DHT22;12307;50.828;6.080;2023-02-17T04:15:54;20.70;52.60
24144;DHT22;12307;50.828;6.080;2023-02-17T04:18:20;20.70;52.60
24144;DHT22;12307;50.828;6.080;2023-02-17T04:20:48;20.70;52.60
24144;DHT22;12307;50.828;6.080;2023-02-17T04:23:14;20.70;52.70
24144;DHT22;12307;50.828;6.080;2023-02-17T04:25:40;20.70;52.60
24144;DHT22;12307;50.828;6.080;2023-02-17T04:28:06;20.70;52.70
24144;DHT22;12307;50.828;6.080;2023-02-17T04:30:34;20.70;52.70
24144;DHT22;12307;50.828;6.080;2023-02-17T04:33:00;20.70;52.70
24144;DHT22;12307;50.828;6.080;2023-02-17T04:35:26;20.70;52.70
24144;DHT22;12307;50.828;6.080;2023-02-17T04:37:52;20.70;52.70
24144;DHT22;12307;50.828;6.080;2023-02-17T04:40:19;20.70;52.70
24144;DHT22;12307;50.828;6.080;2023-02-17T04:42:45;20.70;52.70
24144;DHT22;12307;50.828;6.080;2023-02-17T04:45:11;20.70;52.70
24144;DHT22;12307;50.828;6.080;2023-02-17T04:47:38;20.70;52.70
24144;DHT22;12307;50.828;6.080;2023-02-17T04:50:07;20.70;52.70
24144;DHT22;12307;50.828;6.080;2023-02-17T04:52:33;20.70;52.70
24144;DHT22;12307;50.828;6.080;2023-02-17T04:54:59;20.60;52.60
24144;DHT22;12307;50.828;6.080;2023-02-17T04:57:25;20.60;52.60
24144;DHT22;12307;50.828;6.080;2023-02-17T04:59:50;20.60;52.70
24144;DHT22;12307;50.828;6.080;2023-02-17T05:02:16;20.70;52.70
24144;DHT22;12307;50.828;6.080;2023-02-17T05:04:43;20.70;52.70
24144;DHT22;12307;50.828;6.080;2023-02-17T05:07:12;20.70;52.70
24144;DHT22;12307;50.828;6.080;2023-02-17T05:09:38;20.70;52.70
24144;DHT22;12307;50.828;6.080;2023-02-17T05:12:04;20.70;52.70
24144;DHT22;12307;50.828;6.080;2023-02-17T05:14:31;20.70;52.70
24144;DHT22;12307;50.828;6.080;2023-02-17T05:16:56;20.70;52.70
24144;DHT22;12307;50.828;6.080;2023-02-17T05:19:22;20.70;53.30
24144;DHT22;12307;50.828;6.080;2023-02-17T05:21:49;20.70;52.60
24144;DHT22;12307;50.828;6.080;2023-02-17T05:24:15;20.70;52.60
24144;DHT22;12307;50.828;6.080;2023-02-17T05:26:41;20.70;52.60
24144;DHT22;12307;50.828;6.080;2023-02-17T05:29:07;20.70;52.70
24144;DHT22;12307;50.828;6.080;2023-02-17T05:31:32;20.70;52.70
24144;DHT22;12307;50.828;6.080;2023-02-17T05:33:58;20.70;52.70
24144;DHT22;12307;50.828;6.080;2023-02-17T05:36:24;20.70;52.70
24144;DHT22;12307;50.828;6.080;2023-02-17T05:38:51;20.70;52.70
24144;DHT22;12307;50.828;6.080;2023-02-17T05:41:18;20.70;52.70
24144;DHT22;12307;50.828;6.080;2023-02-17T05:43:44;20.70;52.70
24144;DHT22;12307;50.828;6.080;2023-02-17T05:46:09;20.70;52.70
24144;DHT22;12307;50.828;6.080;2023-02-17T05:48:35;20.70;52.70
24144;DHT22;12307;50.828;6.080;2023-02-17T05:51:01;20.70;52.70
24144;DHT22;12307;50.828;6.080;2023-02-17T05:53:27;20.70;52.70
24144;DHT22;12307;50.828;6.080;2023-02-17T05:55:54;20.70;52.80
24144;DHT22;12307;50.828;6.080;2023-02-17T05:58:20;20.70;52.80
24144;DHT22;12307;50.828;6.080;2023-02-17T06:00:46;20.70;52.80
24144;DHT22;12307;50.828;6.080;2023-02-17T06:03:13;20.70;52.80
24144;DHT22;12307;50.828;6.080;2023-02-17T06:05:39;20.70;52.80
24144;DHT22;12307;50.828;6.080;2023-02-17T06:08:05;20.70;52.80
24144;DHT22;12307;50.828;6.080;2023-02-17T06:10:31;20.70;52.80
24144;DHT22;12307;50.828;6.080;2023-02-17T06:12:58;20.70;52.80
24144;DHT22;12307;50.828;6.080;2023-02-17T06:15:24;20.70;52.80
24144;DHT22;12307;50.828;6.080;2023-02-17T06:17:50;20.70;52.80
24144;DHT22;12307;50.828;6.080;2023-02-17T06:20:16;20.70;52.80
24144;DHT22;12307;50.828;6.080;2023-02-17T06:22:42;20.70;52.80
24144;DHT22;12307;50.828;6.080;2023-02-17T06:25:08;20.70;53.40
24144;DHT22;12307;50.828;6.080;2023-02-17T06:27:34;20.70;52.80
24144;DHT22;12307;50.828;6.080;2023-02-17T06:30:02;20.70;52.80
24144;DHT22;12307;50.828;6.080;2023-02-17T06:32:28;20.70;52.80
24144;DHT22;12307;50.828;6.080;2023-02-17T06:34:53;20.70;52.80
24144;DHT22;12307;50.828;6.080;2023-02-17T06:37:19;20.70;52.80
24144;DHT22;12307;50.828;6.080;2023-02-17T06:39:45;20.70;52.90
24144;DHT22;12307;50.828;6.080;2023-02-17T06:42:10;20.70;52.90
24144;DHT22;12307;50.828;6.080;2023-02-17T06:44:36;20.70;52.90
24144;DHT22;12307;50.828;6.080;2023-02-17T06:47:04;20.70;52.90
24144;DHT22;12307;50.828;6.080;2023-02-17T06:49:30;20.70;52.90
24144;DHT22;12307;50.828;6.080;2023-02-17T06:51:56;20.70;52.90
24144;DHT22;12307;50.828;6.080;2023-02-17T06:54:21;20.70;52.90
24144;DHT22;12307;50.828;6.080;2023-02-17T06:56:47;20.70;52.90
24144;DHT22;12307;50.828;6.080;2023-02-17T06:59:13;20.70;52.90
24144;DHT22;12307;50.828;6.080;2023-02-17T07:01:38;20.70;52.90
24144;DHT22;12307;50.828;6.080;2023-02-17T07:04:05;20.70;52.90
24144;DHT22;12307;50.828;6.080;2023-02-17T07:06:31;20.70;52.90
24144;DHT22;12307;50.828;6.080;2023-02-17T07:08:57;20.70;52.90
24144;DHT22;12307;50.828;6.080;2023-02-17T07:11:23;20.70;52.90
24144;DHT22;12307;50.828;6.080;2023-02-17T07:13:49;20.70;52.90
24144;DHT22;12307;50.828;6.080;2023-02-17T07:16:15;20.70;52.90
24144;DHT22;12307;50.828;6.080;2023-02-17T07:18:41;20.70;52.90
24144;DHT22;12307;50.828;6.080;2023-02-17T07:21:08;20.70;52.90
24144;DHT22;12307;50.828;6.080;2023-02-17T07:23:34;20.70;52.90
24144;DHT22;12307;50.828;6.080;2023-02-17T07:26:01;20.70;52.90
24144;DHT22;12307;50.828;6.080;2023-02-17T07:28:27;20.70;52.90
24144;DHT22;12307;50.828;6.080;2023-02-17T07:30:53;20.70;52.90
24144;DHT22;12307;50.828;6.080;2023-02-17T07:33:19;20.70;52.90
24144;DHT22;12307;50.828;6.080;2023-02-17T07:35:44;20.70;52.90
24144;DHT22;12307;50.828;6.080;2023-02-17T07:38:12;20.70;52.90
24144;DHT22;12307;50.828;6.080;2023-02-17T07:40:38;20.70;52.90
24144;DHT22;12307;50.828;6.080;2023-02-17T07:43:04;20.80;53.00
24144;DHT22;12307;50.828;6.080;2023-02-17T07:45:29;20.80;53.00
24144;DHT22;12307;50.828;6.080;2023-02-17T07:47:55;20.70;52.90
24144;DHT22;12307;50.828;6.080;2023-02-17T07:50:21;20.80;53.00
24144;DHT22;12307;50.828;6.080;2023-02-17T07:52:47;20.80;53.00
24144;DHT22;12307;50.828;6.080;2023-02-17T07:55:14;20.80;53.00
24144;DHT22;12307;50.828;6.080;2023-02-17T07:57:39;20.80;53.00
24144;DHT22;12307;50.828;6.080;2023-02-17T08:00:06;20.80;53.00
24144;DHT22;12307;50.828;6.080;2023-02-17T08:02:32;20.80;53.00
24144;DHT22;12307;50.828;6.080;2023-02-17T08:04:58;20.80;53.00
24144;DHT22;12307;50.828;6.080;2023-02-17T08:07:23;20.80;53.00
24144;DHT22;12307;50.828;6.080;2023-02-17T08:09:49;20.80;53.00
24144;DHT22;12307;50.828;6.080;2023-02-17T08:12:35;20.90;53.00
24144;DHT22;12307;50.828;6.080;2023-02-17T08:15:19;20.80;53.00
24144;DHT22;12307;50.828;6.080;2023-02-17T08:17:45;20.90;53.00
24144;DHT22;12307;50.828;6.080;2023-02-17T08:20:12;20.90;53.00
24144;DHT22;12307;50.828;6.080;2023-02-17T08:22:40;20.90;53.00
24144;DHT22;12307;50.828;6.080;2023-02-17T08:25:06;20.90;53.00
24144;DHT22;12307;50.828;6.080;2023-02-17T08:27:32;21.00;53.00
24144;DHT22;12307;50.828;6.080;2023-02-17T08:30:02;21.00;53.00
24144;DHT22;12307;50.828;6.080;2023-02-17T08:32:28;21.00;53.00
24144;DHT22;12307;50.828;6.080;2023-02-17T08:34:54;21.00;53.00
24144;DHT22;12307;50.828;6.080;2023-02-17T08:37:20;21.00;53.00
24144;DHT22;12307;50.828;6.080;2023-02-17T08:39:49;21.00;53.10
24144;DHT22;12307;50.828;6.080;2023-02-17T08:42:14;21.00;53.00
24144;DHT22;12307;50.828;6.080;2023-02-17T08:44:42;21.00;53.20
24144;DHT22;12307;50.828;6.080;2023-02-17T08:47:09;21.00;53.30
24144;DHT22;12307;50.828;6.080;2023-02-17T08:49:35;20.90;53.30
24144;DHT22;12307;50.828;6.080;2023-02-17T08:52:01;20.90;53.40
24144;DHT22;12307;50.828;6.080;2023-02-17T08:54:26;20.90;53.40
24144;DHT22;12307;50.828;6.080;2023-02-17T08:56:52;21.00;53.50
24144;DHT22;12307;50.828;6.080;2023-02-17T08:59:18;21.00;53.60
24144;DHT22;12307;50.828;6.080;2023-02-17T09:01:44;21.00;53.60
24144;DHT22;12307;50.828;6.080;2023-02-17T09:04:12;21.00;53.60
24144;DHT22;12307;50.828;6.080;2023-02-17T09:06:41;21.00;53.60
24144;DHT22;12307;50.828;6.080;2023-02-17T09:09:09;21.00;53.70
24144;DHT22;12307;50.828;6.080;2023-02-17T09:11:39;21.10;53.70
24144;DHT22;12307;50.828;6.080;2023-02-17T09:14:06;21.20;53.60
24144;DHT22;12307;50.828;6.080;2023-02-17T09:16:32;21.20;53.60
24144;DHT22;12307;50.828;6.080;2023-02-17T09:18:58;21.20;53.60
24144;DHT22;12307;50.828;6.080;2023-02-17T09:21:25;21.20;53.60
24144;DHT22;12307;50.828;6.080;2023-02-17T09:23:51;21.20;53.70
24144;DHT22;12307;50.828;6.080;2023-02-17T09:26:18;21.20;53.80
24144;DHT22;12307;50.828;6.080;2023-02-17T09:28:44;21.30;53.80
24144;DHT22;12307;50.828;6.080;2023-02-17T09:31:11;21.40;53.80
24144;DHT22;12307;50.828;6.080;2023-02-17T09:33:38;21.40;53.80
24144;DHT22;12307;50.828;6.080;2023-02-17T09:36:04;21.50;53.70
24144;DHT22;12307;50.828;6.080;2023-02-17T09:38:32;21.50;53.70
24144;DHT22;12307;50.828;6.080;2023-02-17T09:41:03;21.60;53.80
24144;DHT22;12307;50.828;6.080;2023-02-17T09:43:32;21.70;53.70
24144;DHT22;12307;50.828;6.080;2023-02-17T09:46:01;21.70;53.60
24144;DHT22;12307;50.828;6.080;2023-02-17T09:48:31;21.80;53.60
24144;DHT22;12307;50.828;6.080;2023-02-17T09:51:01;21.90;53.70
24144;DHT22;12307;50.828;6.080;2023-02-17T09:53:38;22.00;53.60
24144;DHT22;12307;50.828;6.080;2023-02-17T09:56:11;22.10;53.60
24144;DHT22;12307;50.828;6.080;2023-02-17T09:58:41;22.30;53.70
24144;DHT22;12307;50.828;6.080;2023-02-17T10:01:14;22.40;53.60
24144;DHT22;12307;50.828;6.080;2023-02-17T10:03:43;22.50;53.60
24144;DHT22;12307;50.828;6.080;2023-02-17T10:06:13;22.50;53.60
24144;DHT22;12307;50.828;6.080;2023-02-17T10:08:44;22.60;53.60
24144;DHT22;12307;50.828;6.080;2023-02-17T10:11:17;22.70;53.60
24144;DHT22;12307;50.828;6.080;2023-02-17T10:13:45;22.80;53.60
24144;DHT22;12307;50.828;6.080;2023-02-17T10:16:20;22.90;53.50
24144;DHT22;12307;50.828;6.080;2023-02-17T10:18:55;23.10;53.50
24144;DHT22;12307;50.828;6.080;2023-02-17T10:21:26;23.20;53.30
24144;DHT22;12307;50.828;6.080;2023-02-17T10:23:54;23.30;53.10
24144;DHT22;12307;50.828;6.080;2023-02-17T10:26:26;23.50;53.00
24144;DHT22;12307;50.828;6.080;2023-02-17T10:28:59;23.60;52.80
24144;DHT22;12307;50.828;6.080;2023-02-17T10:31:36;23.70;52.70
24144;DHT22;12307;50.828;6.080;2023-02-17T10:34:12;23.90;52.50
24144;DHT22;12307;50.828;6.080;2023-02-17T10:36:49;24.10;52.40
24144;DHT22;12307;50.828;6.080;2023-02-17T10:39:29;24.30;52.10
24144;DHT22;12307;50.828;6.080;2023-02-17T10:41:59;24.40;51.80
24144;DHT22;12307;50.828;6.080;2023-02-17T10:44:26;24.50;51.70
24144;DHT22;12307;50.828;6.080;2023-02-17T10:46:53;24.50;51.70
24144;DHT22;12307;50.828;6.080;2023-02-17T10:49:25;24.40;51.80
24144;DHT22;12307;50.828;6.080;2023-02-17T10:51:51;24.20;51.80
24144;DHT22;12307;50.828;6.080;2023-02-17T10:54:28;24.10;52.10
24144;DHT22;12307;50.828;6.080;2023-02-17T10:56:56;24.00;52.30
24144;DHT22;12307;50.828;6.080;2023-02-17T10:59:26;23.80;52.40
24144;DHT22;12307;50.828;6.080;2023-02-17T11:01:56;23.70;52.60
24144;DHT22;12307;50.828;6.080;2023-02-17T11:04:22;23.60;52.90
24144;DHT22;12307;50.828;6.080;2023-02-17T11:06:50;23.50;53.00
24144;DHT22;12307;50.828;6.080;2023-02-17T11:09:19;23.40;53.20
24144;DHT22;12307;50.828;6.080;2023-02-17T11:11:57;23.30;53.40
24144;DHT22;12307;50.828;6.080;2023-02-17T11:14:25;23.20;53.50
24144;DHT22;12307;50.828;6.080;2023-02-17T11:16:55;23.10;53.70
24144;DHT22;12307;50.828;6.080;2023-02-17T11:19:25;23.00;53.80
24144;DHT22;12307;50.828;6.080;2023-02-17T11:21:53;22.90;54.00
24144;DHT22;12307;50.828;6.080;2023-02-17T11:24:19;22.80;54.60
24144;DHT22;12307;50.828;6.080;2023-02-17T11:26:56;22.70;54.20
24144;DHT22;12307;50.828;6.080;2023-02-17T11:29:22;22.60;54.30
24144;DHT22;12307;50.828;6.080;2023-02-17T11:31:54;22.50;54.40
24144;DHT22;12307;50.828;6.080;2023-02-17T11:34:22;22.50;54.60
24144;DHT22;12307;50.828;6.080;2023-02-17T11:36:57;22.50;54.70
24144;DHT22;12307;50.828;6.080;2023-02-17T11:39:23;22.40;54.70
24144;DHT22;12307;50.828;6.080;2023-02-17T11:41:49;22.40;54.80
24144;DHT22;12307;50.828;6.080;2023-02-17T11:44:23;22.30;54.80
24144;DHT22;12307;50.828;6.080;2023-02-17T11:46:54;22.30;54.80
24144;DHT22;12307;50.828;6.080;2023-02-17T11:52:34;22.30;55.00
24144;DHT22;12307;50.828;6.080;2023-02-17T11:55:12;22.30;55.00
24144;DHT22;12307;50.828;6.080;2023-02-17T11:57:42;22.30;55.00
24144;DHT22;12307;50.828;6.080;2023-02-17T12:00:16;22.40;55.00
24144;DHT22;12307;50.828;6.080;2023-02-17T12:03:01;22.50;55.00
24144;DHT22;12307;50.828;6.080;2023-02-17T12:05:43;22.60;55.00
24144;DHT22;12307;50.828;6.080;2023-02-17T12:08:18;22.60;54.80
24144;DHT22;12307;50.828;6.080;2023-02-17T12:10:55;22.70;54.80
24144;DHT22;12307;50.828;6.080;2023-02-17T12:13:32;22.70;54.80
24144;DHT22;12307;50.828;6.080;2023-02-17T12:16:15;22.70;54.90
24144;DHT22;12307;50.828;6.080;2023-02-17T12:18:50;22.70;54.90
24144;DHT22;12307;50.828;6.080;2023-02-17T12:21:28;22.60;54.90
24144;DHT22;12307;50.828;6.080;2023-02-17T12:24:06;22.60;55.00
24144;DHT22;12307;50.828;6.080;2023-02-17T12:26:41;22.50;55.10
24144;DHT22;12307;50.828;6.080;2023-02-17T12:29:19;22.50;55.10
24144;DHT22;12307;50.828;6.080;2023-02-17T12:31:59;22.50;55.10
24144;DHT22;12307;50.828;6.080;2023-02-17T12:34:29;22.60;55.10
24144;DHT22;12307;50.828;6.080;2023-02-17T12:36:57;22.60;55.10
24144;DHT22;12307;50.828;6.080;2023-02-17T12:39:25;22.60;55.10
24144;DHT22;12307;50.828;6.080;2023-02-17T12:41:57;22.60;55.10
24144;DHT22;12307;50.828;6.080;2023-02-17T12:44:27;22.60;55.10
24144;DHT22;12307;50.828;6.080;2023-02-17T12:46:58;22.60;55.10
24144;DHT22;12307;50.828;6.080;2023-02-17T12:49:30;22.60;55.10
24144;DHT22;12307;50.828;6.080;2023-02-17T12:52:04;22.60;55.30
24144;DHT22;12307;50.828;6.080;2023-02-17T12:54:33;22.60;55.20
24144;DHT22;12307;50.828;6.080;2023-02-17T12:57:13;22.60;55.20
24144;DHT22;12307;50.828;6.080;2023-02-17T12:59:40;22.60;55.30
24144;DHT22;12307;50.828;6.080;2023-02-17T13:02:10;22.50;55.30
24144;DHT22;12307;50.828;6.080;2023-02-17T13:04:37;22.50;55.50
24144;DHT22;12307;50.828;6.080;2023-02-17T13:07:22;22.40;55.50
24144;DHT22;12307;50.828;6.080;2023-02-17T13:09:53;22.30;55.50
24144;DHT22;12307;50.828;6.080;2023-02-17T13:12:32;22.30;55.60
24144;DHT22;12307;50.828;6.080;2023-02-17T13:15:00;22.30;55.60
24144;DHT22;12307;50.828;6.080;2023-02-17T13:17:30;22.30;55.60
24144;DHT22;12307;50.828;6.080;2023-02-17T13:20:03;22.30;55.60
24144;DHT22;12307;50.828;6.080;2023-02-17T13:22:29;22.30;55.60
24144;DHT22;12307;50.828;6.080;2023-02-17T13:24:55;22.30;55.70
24144;DHT22;12307;50.828;6.080;2023-02-17T13:27:30;22.20;55.70
24144;DHT22;12307;50.828;6.080;2023-02-17T13:30:00;22.10;55.70
24144;DHT22;12307;50.828;6.080;2023-02-17T13:32:30;22.10;55.80
24144;DHT22;12307;50.828;6.080;2023-02-17T13:35:01;22.00;55.80
24144;DHT22;12307;50.828;6.080;2023-02-17T13:37:39;22.10;55.90
24144;DHT22;12307;50.828;6.080;2023-02-17T13:40:34;22.10;55.90
24144;DHT22;12307;50.828;6.080;2023-02-17T13:43:08;22.10;55.90
24144;DHT22;12307;50.828;6.080;2023-02-17T13:45:39;22.00;55.90
24144;DHT22;12307;50.828;6.080;2023-02-17T13:51:02;22.00;56.00
24144;DHT22;12307;50.828;6.080;2023-02-17T13:53:29;22.00;56.10
24144;DHT22;12307;50.828;6.080;2023-02-17T13:55:57;21.90;56.10
24144;DHT22;12307;50.828;6.080;2023-02-17T13:58:26;21.90;56.10
24144;DHT22;12307;50.828;6.080;2023-02-17T14:00:53;21.90;56.10
24144;DHT22;12307;50.828;6.080;2023-02-17T14:03:21;21.90;56.10
24144;DHT22;12307;50.828;6.080;2023-02-17T14:05:49;21.90;56.20
24144;DHT22;12307;50.828;6.080;2023-02-17T14:08:20;21.80;56.20
24144;DHT22;12307;50.828;6.080;2023-02-17T14:10:48;21.80;56.20
24144;DHT22;12307;50.828;6.080;2023-02-17T14:13:14;21.80;56.30
24144;DHT22;12307;50.828;6.080;2023-02-17T14:15:50;21.70;56.20
24144;DHT22;12307;50.828;6.080;2023-02-17T14:18:27;21.70;56.30
24144;DHT22;12307;50.828;6.080;2023-02-17T14:21:00;21.70;56.30
24144;DHT22;12307;50.828;6.080;2023-02-17T14:23:27;21.70;56.30
24144;DHT22;12307;50.828;6.080;2023-02-17T14:26:09;21.70;56.40
24144;DHT22;12307;50.828;6.080;2023-02-17T14:28:35;21.70;56.40
24144;DHT22;12307;50.828;6.080;2023-02-17T14:31:07;21.60;56.30
24144;DHT22;12307;50.828;6.080;2023-02-17T14:33:33;21.60;56.30
24144;DHT22;12307;50.828;6.080;2023-02-17T14:36:00;21.60;56.30
24144;DHT22;12307;50.828;6.080;2023-02-17T14:38:31;21.60;56.30
24144;DHT22;12307;50.828;6.080;2023-02-17T14:40:57;21.60;56.30
24144;DHT22;12307;50.828;6.080;2023-02-17T14:43:24;21.60;56.30
24144;DHT22;12307;50.828;6.080;2023-02-17T14:45:50;21.70;56.30
24144;DHT22;12307;50.828;6.080;2023-02-17T14:48:16;21.70;56.30
24144;DHT22;12307;50.828;6.080;2023-02-17T14:50:42;21.70;57.00
24144;DHT22;12307;50.828;6.080;2023-02-17T14:53:12;21.70;56.30
24144;DHT22;12307;50.828;6.080;2023-02-17T14:55:44;21.70;56.30
24144;DHT22;12307;50.828;6.080;2023-02-17T14:58:16;21.60;56.30
24144;DHT22;12307;50.828;6.080;2023-02-17T15:00:43;21.60;56.30
24144;DHT22;12307;50.828;6.080;2023-02-17T15:03:08;21.50;56.30
24144;DHT22;12307;50.828;6.080;2023-02-17T15:05:34;21.50;56.40
24144;DHT22;12307;50.828;6.080;2023-02-17T15:08:00;21.50;56.40
24144;DHT22;12307;50.828;6.080;2023-02-17T15:10:27;21.50;56.50
24144;DHT22;12307;50.828;6.080;2023-02-17T15:12:55;21.40;56.50
24144;DHT22;12307;50.828;6.080;2023-02-17T15:15:21;21.40;56.70
24144;DHT22;12307;50.828;6.080;2023-02-17T15:17:47;21.30;56.70
24144;DHT22;12307;50.828;6.080;2023-02-17T15:20:15;21.30;56.80
24144;DHT22;12307;50.828;6.080;2023-02-17T15:22:41;21.20;56.80
24144;DHT22;12307;50.828;6.080;2023-02-17T15:25:12;21.20;56.90
24144;DHT22;12307;50.828;6.080;2023-02-17T15:27:38;21.20;57.00
24144;DHT22;12307;50.828;6.080;2023-02-17T15:30:09;21.10;57.00
24144;DHT22;12307;50.828;6.080;2023-02-17T15:32:34;21.10;57.00
24144;DHT22;12307;50.828;6.080;2023-02-17T15:35:00;21.10;57.10
24144;DHT22;12307;50.828;6.080;2023-02-17T15:37:26;21.10;57.00
24144;DHT22;12307;50.828;6.080;2023-02-17T15:39:52;21.10;57.10
24144;DHT22;12307;50.828;6.080;2023-02-17T15:42:18;21.10;57.10
24144;DHT22;12307;50.828;6.080;2023-02-17T15:44:45;21.10;57.10
24144;DHT22;12307;50.828;6.080;2023-02-17T15:47:16;21.10;57.10